Terminal Aerodrome Forecast
Issued by NWS

Home | Current Version | Previous Version | Text Only | Print | Product List | Glossary On
Versions: 1 2 3 4 5 6 7 8 9 10 11 12 13 14 15
000
FTUS46 KMTR 290500
TAFOAK
TAF
KOAK 290528Z 2906/3012 29005KT P6SM SCT200
     FM291000 29005KT P6SM BKN010
     FM291800 29006KT P6SM SCT012
     FM292000 29014KT P6SM SKC
     FM300400 29008KT P6SM SKC
     FM301000 31005KT P6SM SCT010=

USA.gov is the U.S. government's official web portal to all federal, state and local government web resources and services.